Time;durP1;ratioP1;P1;durP2;ratioP2;P2;SDS_P1;SDS_P2;PMS_P1;PMS_P2;Temp;Humidity;BMP_temperature;BMP_pressure;BME280_temperature;BME280_humidity;BME280_pressure;Samples;Min_cycle;Max_cycle;Signal;HPM_P1;HPM_P2
2022/05/23 00:00:23;;;;;;;4.18;1.40;;;;;;;17.47;49.41;99249.16;4977334;28;20058;-82
2022/05/23 00:02:50;;;;;;;3.53;1.70;;;;;;;17.46;49.67;99252.81;4977586;28;20458;-85
2022/05/23 00:05:17;;;;;;;4.65;1.27;;;;;;;17.48;49.76;99244.66;4975781;28;20061;-82
2022/05/23 00:07:48;;;;;;;5.28;1.63;;;;;;;17.47;49.60;99241.16;4977576;28;20051;-82
2022/05/23 00:10:18;;;;;;;5.57;1.60;;;;;;;17.49;49.58;99246.34;4977078;28;20050;-83
2022/05/23 00:12:45;;;;;;;1.80;1.00;;;;;;;17.51;49.46;99236.38;4960363;28;20107;-82
2022/05/23 00:15:12;;;;;;;3.55;1.20;;;;;;;17.50;49.31;99232.06;4977509;28;20125;-82
2022/05/23 00:17:39;;;;;;;2.13;1.30;;;;;;;17.49;49.58;99223.22;4976212;28;20050;-84
2022/05/23 00:20:09;;;;;;;4.32;1.17;;;;;;;17.47;49.62;99214.56;4975113;28;20106;-80
2022/05/23 00:22:37;;;;;;;2.35;1.20;;;;;;;17.45;49.28;99208.53;4973951;28;20420;-83
2022/05/23 00:25:07;;;;;;;3.15;1.30;;;;;;;17.42;49.33;99207.00;4974935;28;20548;-83
2022/05/23 00:27:37;;;;;;;3.08;1.38;;;;;;;17.43;49.74;99205.19;4957681;28;20105;-82
2022/05/23 00:30:07;;;;;;;4.75;1.60;;;;;;;17.39;49.46;99207.31;4957743;28;20130;-83
2022/05/23 00:35:19;;;;;;;2.33;1.38;;;;;;;17.41;49.73;99204.47;4975135;28;20051;-83
2022/05/23 00:37:51;;;;;;;3.17;1.20;;;;;;;17.41;49.51;99199.16;4975312;28;20058;-84
2022/05/23 00:40:30;;;;;;;1.83;1.17;;;;;;;17.38;49.04;99196.81;4975140;28;20580;-83
2022/05/23 00:43:15;;;;;;;2.85;1.00;;;;;;;17.41;49.50;99192.03;4975037;28;20059;-84
2022/05/23 00:45:47;;;;;;;3.08;1.25;;;;;;;17.40;49.32;99190.34;4975992;28;20053;-82
2022/05/23 00:48:16;;;;;;;7.60;1.83;;;;;;;17.43;49.77;99190.03;4976494;28;20401;-82
2022/05/23 00:50:47;;;;;;;5.57;1.55;;;;;;;17.43;49.51;99182.06;4974563;28;20051;-83
2022/05/23 00:53:14;;;;;;;4.30;1.52;;;;;;;17.45;49.75;99179.25;4975301;28;20755;-83
2022/05/23 00:55:48;;;;;;;2.40;1.27;;;;;;;17.41;49.62;99176.06;4974678;28;20054;-84
2022/05/23 00:58:22;;;;;;;3.40;1.38;;;;;;;17.40;49.38;99170.88;4974440;28;20047;-82
2022/05/23 01:00:50;;;;;;;5.43;1.80;;;;;;;17.41;49.59;99157.44;4975417;28;20121;-84
2022/05/23 01:03:18;;;;;;;5.35;1.52;;;;;;;17.40;49.66;99161.09;4976101;28;20051;-83
2022/05/23 01:05:46;;;;;;;4.65;1.48;;;;;;;17.39;49.95;99154.09;4976595;28;20062;-83
2022/05/23 01:08:17;;;;;;;3.10;1.35;;;;;;;17.36;49.53;99145.56;4974790;28;20046;-82
2022/05/23 01:10:45;;;;;;;3.65;1.50;;;;;;;17.35;49.90;99143.88;4976019;28;20501;-85
2022/05/23 01:13:12;;;;;;;4.28;1.40;;;;;;;17.32;49.87;99140.53;4975709;28;20505;-83
2022/05/23 01:15:38;;;;;;;4.32;1.58;;;;;;;17.30;49.90;99131.88;4957892;28;20058;-84
2022/05/23 01:18:05;;;;;;;2.42;1.30;;;;;;;17.29;50.04;99129.34;4975229;28;20101;-84
2022/05/23 01:20:33;;;;;;;4.05;1.52;;;;;;;17.27;50.21;99132.16;4977985;28;20055;-85
2022/05/23 01:23:07;;;;;;;3.95;1.58;;;;;;;17.24;49.77;99131.63;4977405;28;20062;-86
2022/05/23 01:25:36;;;;;;;6.05;1.35;;;;;;;17.26;50.36;99126.97;4978564;28;20051;-83
2022/05/23 01:28:03;;;;;;;4.65;1.63;;;;;;;17.25;50.26;99123.50;4977284;28;20054;-83
2022/05/23 01:30:31;;;;;;;3.40;1.33;;;;;;;17.25;50.32;99120.00;4977894;28;20058;-86
2022/05/23 01:32:57;;;;;;;4.63;1.70;;;;;;;17.25;50.52;99120.00;4977629;28;20108;-83
2022/05/23 01:35:24;;;;;;;2.50;1.48;;;;;;;17.24;50.44;99105.88;4977550;28;20413;-86
2022/05/23 01:37:50;;;;;;;4.10;1.75;;;;;;;17.25;50.50;99101.38;4979280;28;20074;-84
2022/05/23 01:40:18;;;;;;;5.18;2.03;;;;;;;17.24;50.58;99105.88;4978449;28;20468;-84
2022/05/23 01:42:45;;;;;;;3.15;1.23;;;;;;;17.23;50.64;99096.19;4961233;28;20054;-86
2022/05/23 01:45:15;;;;;;;4.68;1.50;;;;;;;17.23;50.60;99095.38;4978334;28;20547;-83
2022/05/23 01:47:42;;;;;;;5.45;1.80;;;;;;;17.23;50.87;99098.03;4978667;28;20047;-85
2022/05/23 01:50:09;;;;;;;6.28;1.48;;;;;;;17.23;50.96;99100.69;4978754;28;20058;-82
2022/05/23 01:52:36;;;;;;;5.95;1.65;;;;;;;17.22;50.87;99094.53;4978858;28;20051;-85
2022/05/23 01:55:03;;;;;;;7.35;1.90;;;;;;;17.23;51.00;99096.19;4978962;28;20055;-84
2022/05/23 01:57:31;;;;;;;3.38;1.55;;;;;;;17.25;50.81;99088.91;4976267;28;20174;-83
2022/05/23 02:02:47;;;;;;;5.55;2.08;;;;;;;17.26;51.30;99090.59;4978481;28;20051;-84
2022/05/23 02:05:15;;;;;;;3.95;1.83;;;;;;;17.28;51.08;99088.63;4978800;28;20058;-84
2022/05/23 02:07:42;;;;;;;6.20;1.90;;;;;;;17.28;51.03;99085.97;4978675;28;20055;-85
2022/05/23 02:10:10;;;;;;;4.95;2.00;;;;;;;17.28;51.20;99083.31;4961547;28;20062;-85
2022/05/23 02:12:37;;;;;;;6.97;1.88;;;;;;;17.29;51.47;99084.13;4978567;28;20105;-84
2022/05/23 02:15:05;;;;;;;4.07;1.77;;;;;;;17.30;51.15;99080.47;4977584;28;20102;-84
2022/05/23 02:17:33;;;;;;;6.68;2.13;;;;;;;17.30;51.48;99086.66;4978696;28;20086;-83
2022/05/23 02:20:00;;;;;;;5.15;2.22;;;;;;;17.30;51.34;99076.00;4978540;28;20055;-83
2022/05/23 02:22:27;;;;;;;4.10;1.85;;;;;;;17.32;51.69;99082.00;4976838;28;20456;-85
2022/05/23 02:24:53;;;;;;;6.88;2.63;;;;;;;17.34;51.55;99081.03;4978733;28;20081;-85
2022/05/23 02:27:20;;;;;;;5.10;2.00;;;;;;;17.37;51.79;99078.06;4979649;28;20046;-82
2022/05/23 02:29:46;;;;;;;5.32;2.30;;;;;;;17.37;51.99;99073.59;4977366;28;20560;-85
2022/05/23 02:32:14;;;;;;;4.97;2.47;;;;;;;17.41;51.89;99067.00;4978833;28;20046;-84
2022/05/23 02:34:41;;;;;;;5.75;2.35;;;;;;;17.44;51.96;99079.16;4979033;28;20108;-82
2022/05/23 02:37:09;;;;;;;9.38;2.38;;;;;;;17.48;51.89;99072.56;4978982;28;20046;-82
2022/05/23 02:39:36;;;;;;;5.22;2.40;;;;;;;17.52;51.86;99067.75;4979523;28;20082;-85
2022/05/23 02:42:03;;;;;;;4.30;2.38;;;;;;;17.55;51.77;99070.97;4978945;28;20051;-84
2022/05/23 02:44:30;;;;;;;5.60;2.20;;;;;;;17.60;51.68;99069.69;4978582;28;20051;-85
2022/05/23 02:46:56;;;;;;;5.60;2.60;;;;;;;17.63;51.81;99061.38;4961967;28;20483;-83
2022/05/23 02:49:23;;;;;;;5.82;2.33;;;;;;;17.67;51.70;99060.09;4979563;28;20055;-85
2022/05/23 02:51:49;;;;;;;6.00;2.53;;;;;;;17.70;51.66;99057.13;4978586;28;20452;-83
2022/05/23 02:54:16;;;;;;;4.13;2.35;;;;;;;17.73;51.96;99054.19;4961187;28;20052;-87
2022/05/23 02:56:42;;;;;;;5.95;2.47;;;;;;;17.77;51.84;99052.03;4980267;28;20054;-83
2022/05/23 02:59:09;;;;;;;5.13;2.35;;;;;;;17.80;52.05;99052.56;4982582;28;20497;-84
2022/05/23 03:03:01;;;;;;;3.30;2.03;;;;;;;17.83;51.91;99044.28;4982085;28;20046;-86
2022/05/23 03:04:22;;;;;;;4.25;2.30;;;;;;;17.87;51.90;99047.47;4981992;28;20092;-86
2022/05/23 03:06:49;;;;;;;4.22;2.33;;;;;;;17.90;51.75;99046.34;4982129;28;20610;-84
2022/05/23 03:09:15;;;;;;;4.20;2.28;;;;;;;17.92;51.71;99047.03;4980722;28;20074;-84
2022/05/23 03:11:42;;;;;;;3.38;2.10;;;;;;;17.94;51.65;99037.91;4964873;28;20055;-86
2022/05/23 03:14:09;;;;;;;5.75;2.58;;;;;;;17.96;52.08;99038.59;4965667;28;20759;-86
2022/05/23 03:16:35;;;;;;;6.30;2.80;;;;;;;17.99;51.97;99034.78;4982856;28;20062;-85
2022/05/23 03:19:02;;;;;;;5.07;2.55;;;;;;;18.01;52.11;99032.78;4965102;28;20078;-87
2022/05/23 03:26:58;;;;;;;7.05;2.42;;;;;;;18.03;52.29;99016.66;4983626;28;20054;-86
2022/05/23 03:29:29;;;;;;;5.45;2.50;;;;;;;18.03;52.37;99016.66;4984203;28;20050;-86
2022/05/23 03:31:57;;;;;;;6.10;2.40;;;;;;;18.02;52.33;99005.16;4984725;28;20082;-84
2022/05/23 03:34:23;;;;;;;5.97;2.70;;;;;;;18.01;52.32;99003.50;4984371;28;20465;-85
2022/05/23 03:36:50;;;;;;;4.78;2.60;;;;;;;18.00;52.64;98999.16;4984266;28;20107;-85
2022/05/23 03:39:17;;;;;;;5.75;2.67;;;;;;;18.00;52.44;98993.84;4984275;28;20105;-86
2022/05/23 03:41:43;;;;;;;5.22;2.95;;;;;;;18.00;52.97;98993.00;4985200;28;20047;-86
2022/05/23 03:44:12;;;;;;;4.22;3.03;;;;;;;17.99;52.87;98989.53;4983801;28;20137;-85
2022/05/23 03:46:39;;;;;;;6.05;2.80;;;;;;;17.99;52.87;98981.53;4983916;28;20054;-87
2022/05/23 03:49:07;;;;;;;5.30;3.00;;;;;;;17.99;52.92;98976.22;4984877;28;20043;-86
2022/05/23 03:51:35;;;;;;;3.85;2.67;;;;;;;18.01;52.96;98981.38;4984044;28;20047;-84
2022/05/23 03:54:02;;;;;;;7.80;2.80;;;;;;;18.01;53.15;98976.88;4984341;28;20051;-85
2022/05/23 03:56:29;;;;;;;5.45;3.00;;;;;;;18.02;53.11;98964.41;4983854;28;20552;-86
2022/05/23 03:58:55;;;;;;;6.40;2.80;;;;;;;18.03;53.00;98952.75;4987963;28;20543;-87
2022/05/23 04:01:27;;;;;;;5.30;2.75;;;;;;;18.03;52.61;98952.75;4987824;28;20055;-84
2022/05/23 04:03:54;;;;;;;3.65;2.47;;;;;;;18.05;52.68;98946.28;4987049;28;20058;-86
2022/05/23 04:06:20;;;;;;;7.00;3.28;;;;;;;18.07;52.78;98938.97;4970140;28;20046;-85
2022/05/23 04:08:47;;;;;;;5.30;2.80;;;;;;;18.10;53.35;98933.34;4985374;28;20059;-85
2022/05/23 04:11:14;;;;;;;6.20;3.28;;;;;;;18.12;53.10;98932.38;4962797;28;20058;-86
2022/05/23 04:13:40;;;;;;;5.72;2.72;;;;;;;18.14;52.61;98922.41;4975799;28;20055;-82
2022/05/23 04:16:08;;;;;;;6.25;2.88;;;;;;;18.18;52.91;98929.09;4961199;28;20055;-85
2022/05/23 04:18:36;;;;;;;5.50;2.88;;;;;;;18.19;53.26;98909.44;4959751;28;20053;-82
2022/05/23 04:21:04;;;;;;;5.90;2.85;;;;;;;18.21;53.25;98918.13;4974689;28;20109;-85
2022/05/23 04:23:31;;;;;;;4.97;3.03;;;;;;;18.25;52.98;98919.47;4973751;28;20059;-83
2022/05/23 04:26:06;;;;;;;4.28;2.75;;;;;;;18.25;52.78;98922.13;4975890;28;20492;-83
2022/05/23 04:28:35;;;;;;;4.75;2.83;;;;;;;18.29;52.71;98915.50;4976330;28;20051;-83
2022/05/23 04:31:02;;;;;;;8.48;2.92;;;;;;;18.33;52.96;98916.00;4977031;28;20122;-84
2022/05/23 04:36:15;;;;;;;7.03;3.08;;;;;;;18.36;52.81;98897.06;4975196;28;20113;-83
2022/05/23 04:38:43;;;;;;;5.38;2.63;;;;;;;18.38;52.60;98896.91;4975037;28;20047;-82
2022/05/23 04:41:09;;;;;;;7.53;2.97;;;;;;;18.39;52.53;98899.38;4957967;28;20054;-82
2022/05/23 04:43:36;;;;;;;5.68;3.10;;;;;;;18.42;52.60;98895.56;4976708;28;20046;-83
2022/05/23 04:46:03;;;;;;;7.15;2.97;;;;;;;18.42;52.58;98896.41;4980210;28;20690;-86
2022/05/23 04:51:15;;;;;;;6.20;2.90;;;;;;;18.45;52.68;98884.59;4976968;28;20054;-82
2022/05/23 04:53:42;;;;;;;7.70;3.08;;;;;;;18.46;52.69;98886.25;4975661;28;20051;-82
2022/05/23 04:56:08;;;;;;;8.23;3.00;;;;;;;18.47;52.96;98887.94;4975203;28;20133;-82
2022/05/23 04:58:35;;;;;;;5.13;2.58;;;;;;;18.47;52.92;98885.28;4977621;28;20050;-84
2022/05/23 05:01:02;;;;;;;6.10;3.35;;;;;;;18.46;52.98;98881.75;4976814;28;20059;-82
2022/05/23 05:03:28;;;;;;;5.30;2.55;;;;;;;18.47;52.71;98879.94;4975780;28;20057;-83
2022/05/23 05:05:55;;;;;;;5.78;3.15;;;;;;;18.48;52.86;98877.13;4958377;28;20065;-83
2022/05/23 05:08:22;;;;;;;5.72;2.83;;;;;;;18.52;52.94;98882.09;4975812;28;20106;-82
2022/05/23 05:10:48;;;;;;;4.72;3.05;;;;;;;18.54;52.62;98875.63;4973895;28;20074;-82
2022/05/23 05:13:15;;;;;;;5.00;2.50;;;;;;;18.57;52.85;98869.97;4975580;28;20462;-83
2022/05/23 05:15:41;;;;;;;4.53;2.80;;;;;;;18.59;52.83;98876.00;4976632;28;20109;-86
2022/05/23 05:18:10;;;;;;;4.82;2.90;;;;;;;18.61;52.87;98862.47;4976052;28;20085;-83
2022/05/23 05:20:36;;;;;;;5.22;3.13;;;;;;;18.63;52.74;98865.84;4974506;28;20050;-85
2022/05/23 05:23:03;;;;;;;7.05;3.10;;;;;;;18.65;52.67;98861.16;4975308;28;20437;-86
2022/05/23 05:25:29;;;;;;;5.63;3.28;;;;;;;18.68;52.74;98854.66;4958780;28;20271;-86
2022/05/23 05:27:56;;;;;;;5.70;3.00;;;;;;;18.70;52.47;98855.34;4976360;28;20054;-81
2022/05/23 05:30:23;;;;;;;6.28;2.70;;;;;;;18.73;52.63;98857.72;4974788;28;20109;-82
2022/05/23 05:32:58;;;;;;;4.82;2.88;;;;;;;18.74;52.90;98862.03;4974802;28;20058;-82
2022/05/23 05:35:34;;;;;;;4.68;2.95;;;;;;;18.77;52.21;98858.22;4958026;28;20055;-85
2022/05/23 05:38:13;;;;;;;4.50;2.80;;;;;;;18.79;52.72;98851.72;4956487;28;20050;-84
2022/05/23 05:40:43;;;;;;;6.55;3.17;;;;;;;18.86;52.98;98860.72;4972057;28;20065;-84
2022/05/23 05:43:14;;;;;;;5.28;2.92;;;;;;;18.90;52.45;98866.56;4973677;28;20058;-84
2022/05/23 05:45:44;;;;;;;5.40;3.03;;;;;;;18.93;52.69;98866.25;4956567;28;20057;-84
2022/05/23 05:48:11;;;;;;;7.95;3.70;;;;;;;18.97;52.61;98861.41;4971988;28;20049;-83
2022/05/23 05:50:44;;;;;;;10.82;3.55;;;;;;;19.00;52.71;98859.22;4972902;28;20054;-84
2022/05/23 05:53:33;;;;;;;6.10;3.22;;;;;;;19.05;52.53;98861.44;4972890;28;20062;-84
2022/05/23 05:56:02;;;;;;;5.80;3.00;;;;;;;19.10;52.63;98856.44;4956090;28;20054;-84
2022/05/23 05:58:29;;;;;;;5.45;2.65;;;;;;;19.13;52.69;98857.94;4973783;28;20058;-84
2022/05/23 06:00:55;;;;;;;8.55;3.20;;;;;;;19.17;52.82;98850.47;4973726;28;20055;-84
2022/05/23 06:03:22;;;;;;;6.43;2.90;;;;;;;19.21;52.68;98846.47;4971299;28;20051;-84
2022/05/23 06:11:26;;;;;;;4.88;2.63;;;;;;;19.30;52.45;98837.47;4973562;28;20063;-83
2022/05/23 06:13:55;;;;;;;5.80;3.00;;;;;;;19.34;52.40;98838.78;4973095;28;20050;-84
2022/05/23 06:16:27;;;;;;;3.42;2.38;;;;;;;19.36;52.61;98819.97;4972222;28;20055;-86
2022/05/23 06:18:54;;;;;;;6.32;2.90;;;;;;;19.39;52.34;98817.78;4973330;28;20074;-85
2022/05/23 06:21:23;;;;;;;6.82;2.75;;;;;;;19.43;52.44;98809.44;4973418;28;20047;-84
2022/05/23 06:23:50;;;;;;;3.53;2.88;;;;;;;19.46;52.52;98809.09;4973226;28;20051;-84
2022/05/23 06:26:21;;;;;;;4.88;3.05;;;;;;;19.50;52.33;98810.41;4972894;28;20501;-84
2022/05/23 06:28:49;;;;;;;6.70;2.67;;;;;;;19.53;52.33;98799.41;4955841;28;20047;-83
2022/05/23 06:31:16;;;;;;;6.07;3.08;;;;;;;19.57;52.55;98803.41;4973448;28;20118;-84
2022/05/23 06:33:44;;;;;;;4.18;2.78;;;;;;;19.59;52.51;98801.38;4976087;28;20469;-82
2022/05/23 06:36:12;;;;;;;5.57;3.33;;;;;;;19.62;52.53;98795.72;4975665;28;20110;-83
2022/05/23 06:38:41;;;;;;;4.50;3.10;;;;;;;19.64;52.29;98791.06;4959161;28;20055;-83
2022/05/23 06:41:09;;;;;;;7.93;3.20;;;;;;;19.66;52.23;98789.03;4975274;28;20055;-83
2022/05/23 06:43:38;;;;;;;4.38;2.70;;;;;;;19.69;52.61;98784.38;4959632;28;20066;-83
2022/05/23 06:46:05;;;;;;;5.00;2.72;;;;;;;19.71;52.44;98779.69;4977014;28;20054;-84
2022/05/23 06:48:34;;;;;;;5.22;2.83;;;;;;;19.72;52.36;98774.16;4976047;28;20129;-84
2022/05/23 06:51:00;;;;;;;6.78;2.75;;;;;;;19.74;52.64;98776.69;4976259;28;20065;-85
2022/05/23 06:53:30;;;;;;;5.20;2.72;;;;;;;19.76;52.23;98771.97;4975991;28;20055;-85
2022/05/23 06:55:57;;;;;;;5.78;3.20;;;;;;;19.81;52.86;98766.94;4976394;28;20058;-84
2022/05/23 06:58:24;;;;;;;4.90;2.75;;;;;;;19.86;52.88;98769.97;4976502;28;20061;-87
2022/05/23 07:00:52;;;;;;;4.18;2.60;;;;;;;19.92;52.79;98777.28;4976118;28;20109;-84
2022/05/23 07:03:20;;;;;;;5.35;3.17;;;;;;;20.00;52.97;98781.78;4975632;28;20101;-86
2022/05/23 07:14:03;;;;;;;3.85;2.85;;;;;;;20.40;52.58;98764.88;4975180;28;20046;-86
2022/05/23 07:16:31;;;;;;;8.15;3.33;;;;;;;20.50;52.30;98770.84;4958254;28;20050;-87
2022/05/23 07:18:58;;;;;;;8.30;2.83;;;;;;;20.60;52.46;98769.78;4975564;28;20523;-86
2022/05/23 07:21:25;;;;;;;7.55;3.00;;;;;;;20.66;52.14;98769.91;4959090;28;20082;-84
2022/05/23 07:23:53;;;;;;;4.60;3.20;;;;;;;20.75;51.90;98767.19;4974184;28;20054;-84
2022/05/23 07:26:19;;;;;;;4.85;3.40;;;;;;;20.83;51.68;98767.13;4975206;28;20051;-84
2022/05/23 07:28:47;;;;;;;7.20;2.95;;;;;;;20.90;51.70;98773.44;4975787;28;20448;-86
2022/05/23 07:31:14;;;;;;;5.95;3.38;;;;;;;20.98;51.64;98775.22;4975258;28;20470;-84
2022/05/23 07:33:41;;;;;;;4.63;3.00;;;;;;;21.02;51.80;98773.00;4975375;28;20059;-85
2022/05/23 07:36:09;;;;;;;7.82;2.80;;;;;;;21.06;51.44;98764.47;4975729;28;20051;-86
2022/05/23 07:38:39;;;;;;;4.20;2.70;;;;;;;21.12;51.17;98762.88;4975044;28;20102;-86
2022/05/23 07:41:08;;;;;;;6.07;3.30;;;;;;;21.15;50.93;98751.81;4958097;28;20043;-84
2022/05/23 07:43:35;;;;;;;5.43;3.15;;;;;;;21.18;50.93;98746.13;4974765;28;20509;-84
2022/05/23 07:46:09;;;;;;;6.35;3.13;;;;;;;21.18;50.82;98748.78;4975533;28;20057;-84
2022/05/23 07:48:38;;;;;;;7.70;3.22;;;;;;;21.23;50.77;98734.84;4974715;28;20078;-85
2022/05/23 07:51:05;;;;;;;5.13;2.75;;;;;;;21.27;51.39;98740.69;4973584;28;20054;-84
2022/05/23 08:01:48;;;;;;;6.88;2.97;;;;;;;21.53;51.37;98720.69;4974646;28;20050;-85
2022/05/23 08:04:16;;;;;;;4.53;3.13;;;;;;;21.59;51.13;98718.09;4975389;28;20457;-84
2022/05/23 08:06:44;;;;;;;5.18;2.70;;;;;;;21.66;51.39;98717.34;4974329;28;20055;-84
2022/05/23 08:09:10;;;;;;;5.03;2.63;;;;;;;21.73;51.49;98708.44;4974204;28;20050;-85
2022/05/23 08:11:39;;;;;;;6.30;3.10;;;;;;;21.80;51.07;98713.03;4972971;28;20051;-86
2022/05/23 08:14:07;;;;;;;8.45;3.22;;;;;;;21.90;51.38;98710.06;4956595;28;20456;-86
2022/05/23 08:16:35;;;;;;;5.50;3.08;;;;;;;21.98;50.79;98705.41;4973723;28;20051;-85
2022/05/23 08:19:06;;;;;;;7.78;2.80;;;;;;;22.05;51.40;98702.81;4972228;28;20544;-86
2022/05/23 08:21:34;;;;;;;5.45;2.92;;;;;;;22.17;51.68;98697.81;4974014;28;20051;-87
2022/05/23 08:24:01;;;;;;;5.53;2.85;;;;;;;22.27;51.43;98692.13;4973494;28;20066;-88
2022/05/23 08:26:27;;;;;;;6.65;2.78;;;;;;;22.37;51.49;98691.81;4956573;28;20054;-87
2022/05/23 08:28:54;;;;;;;4.45;3.00;;;;;;;22.47;51.51;98692.31;4973780;28;20050;-87
2022/05/23 08:31:21;;;;;;;7.00;3.00;;;;;;;22.57;51.72;98692.03;4972138;28;20090;-87
2022/05/23 08:33:48;;;;;;;3.75;2.65;;;;;;;22.67;52.02;98686.34;4972777;28;20089;-87
2022/05/23 08:36:14;;;;;;;6.55;3.10;;;;;;;22.78;51.61;98680.47;4973517;28;20046;-84
2022/05/23 08:38:41;;;;;;;4.25;2.83;;;;;;;22.91;51.58;98677.03;4956072;28;20054;-87
2022/05/23 08:41:16;;;;;;;5.60;2.92;;;;;;;23.00;50.93;98674.22;4956358;28;20050;-87
2022/05/23 08:43:53;;;;;;;5.10;2.60;;;;;;;23.12;50.24;98678.03;4973665;28;20444;-86
2022/05/23 08:46:34;;;;;;;5.13;2.88;;;;;;;23.20;51.19;98671.66;4956812;28;20055;-86
2022/05/23 08:49:05;;;;;;;4.15;2.50;;;;;;;23.33;51.20;98662.03;4971715;28;20058;-86
2022/05/23 08:51:48;;;;;;;4.88;2.80;;;;;;;23.40;51.07;98668.31;4973415;28;20058;-88
2022/05/23 08:54:18;;;;;;;;;;;;;;;23.52;51.34;98661.31;4955478;28;20062;-87
2022/05/23 08:56:54;;;;;;;4.03;2.38;;;;;;;23.65;50.85;98660.56;4973325;28;19922;-86
2022/05/23 08:59:29;;;;;;;4.82;2.33;;;;;;;23.76;50.50;98653.78;4956034;28;20065;-86
2022/05/23 09:02:00;;;;;;;4.63;2.58;;;;;;;23.85;50.78;98651.72;4972542;28;20097;-87
2022/05/23 09:04:34;;;;;;;5.90;2.42;;;;;;;23.94;50.48;98644.34;4972942;28;20050;-86
2022/05/23 09:07:04;;;;;;;4.00;2.67;;;;;;;24.06;50.25;98642.72;4955553;28;20548;-87
2022/05/23 09:09:32;;;;;;;3.30;2.00;;;;;;;24.16;49.91;98641.50;4972456;28;20050;-87
2022/05/23 09:12:07;;;;;;;7.50;2.13;;;;;;;24.26;48.66;98641.13;4973015;28;20051;-87
2022/05/23 09:14:34;;;;;;;3.17;2.45;;;;;;;24.38;49.53;98641.34;4972475;28;20050;-87
2022/05/23 09:17:01;;;;;;;3.20;2.05;;;;;;;24.47;49.20;98642.78;4972479;28;20058;-87
2022/05/23 09:19:40;;;;;;;4.97;2.58;;;;;;;24.52;48.30;98636.81;4972387;28;20390;-87
2022/05/23 09:22:12;;;;;;;3.40;2.10;;;;;;;24.58;48.51;98623.34;4971080;28;20141;-85
2022/05/23 09:24:53;;;;;;;4.37;2.40;;;;;;;24.63;48.35;98622.72;4972477;28;20464;-87
2022/05/23 09:27:27;;;;;;;4.55;1.90;;;;;;;24.71;47.81;98613.63;4972515;28;20058;-86
2022/05/23 09:29:56;;;;;;;3.67;2.13;;;;;;;24.75;48.35;98609.47;4971062;28;20080;-88
2022/05/23 09:32:32;;;;;;;3.33;2.20;;;;;;;24.78;47.76;98609.03;4971309;28;20051;-86
2022/05/23 09:35:01;;;;;;;4.95;2.42;;;;;;;24.83;48.20;98594.97;4971304;28;20101;-87
2022/05/23 09:37:36;;;;;;;5.47;2.10;;;;;;;24.86;48.02;98586.50;4955300;28;20057;-87
2022/05/23 09:40:05;;;;;;;3.70;2.30;;;;;;;24.92;48.67;98579.44;4972643;28;20105;-87
2022/05/23 09:48:20;;;;;;;6.28;2.20;;;;;;;25.12;47.54;98563.25;4972337;28;20078;-87
2022/05/23 09:51:05;;;;;;;4.25;2.35;;;;;;;25.14;47.29;98549.56;4971897;28;20086;-88
2022/05/23 09:53:39;;;;;;;4.78;2.20;;;;;;;25.23;47.57;98553.69;4972226;28;20062;-86
2022/05/23 09:56:37;;;;;;;3.92;2.10;;;;;;;25.24;47.30;98547.25;4954907;28;20054;-87
2022/05/23 09:59:25;;;;;;;4.13;2.15;;;;;;;25.32;47.22;98544.31;4972028;28;20070;-87
2022/05/23 10:01:53;;;;;;;5.80;2.28;;;;;;;25.45;48.92;98543.41;4972182;28;20050;-86
2022/05/23 10:04:26;;;;;;;4.00;2.03;;;;;;;25.52;47.86;98535.28;4972394;28;20057;-87
2022/05/23 10:06:53;;;;;;;3.08;1.90;;;;;;;25.63;48.26;98523.03;4973845;28;20511;-87
2022/05/23 10:09:37;;;;;;;4.18;2.17;;;;;;;25.72;48.15;98520.91;4975797;28;20046;-87
2022/05/23 10:12:08;;;;;;;5.30;2.20;;;;;;;25.88;48.44;98524.94;4976584;28;20059;-87
2022/05/23 10:14:44;;;;;;;9.10;2.47;;;;;;;25.98;47.41;98514.50;4958839;28;20046;-86
2022/05/23 10:17:23;;;;;;;4.35;2.15;;;;;;;26.12;47.21;98520.63;4974562;28;20673;-87
2022/05/23 10:19:50;;;;;;;3.47;1.90;;;;;;;26.25;47.90;98517.00;4975995;28;20047;-87
2022/05/23 10:22:21;;;;;;;2.85;1.35;;;;;;;26.36;47.10;98504.69;4975892;28;20086;-86
2022/05/23 10:24:59;;;;;;;3.75;1.63;;;;;;;26.47;46.64;98503.13;4976003;28;20047;-87
2022/05/23 10:27:39;;;;;;;4.70;1.90;;;;;;;26.63;46.92;98499.00;4975929;28;20463;-88
2022/05/23 10:30:09;;;;;;;2.17;1.50;;;;;;;26.78;45.04;98495.09;4974280;28;20046;-87
2022/05/23 10:32:48;;;;;;;3.65;1.70;;;;;;;26.90;44.04;98493.31;4958564;28;20050;-86
2022/05/23 10:35:18;;;;;;;4.80;1.75;;;;;;;27.05;44.09;98479.44;4975595;28;20058;-85
2022/05/23 10:37:46;;;;;;;6.78;1.60;;;;;;;27.20;44.78;98491.72;4975630;28;20051;-87
2022/05/23 10:43:13;;;;;;;2.40;1.60;;;;;;;27.44;42.58;98492.63;4975845;28;20105;-88
2022/05/23 10:45:55;;;;;;;4.22;1.80;;;;;;;27.64;42.83;98490.72;4975537;28;20050;-88
2022/05/23 10:48:55;;;;;;;2.07;1.50;;;;;;;27.87;43.98;98484.53;4975448;28;20059;-87
2022/05/23 10:51:38;;;;;;;5.15;1.70;;;;;;;28.19;42.58;98492.31;4958271;28;20055;-89
2022/05/23 10:54:32;;;;;;;2.42;1.38;;;;;;;28.51;42.48;98479.53;4975497;28;20086;-87
2022/05/23 10:57:02;;;;;;;4.53;1.55;;;;;;;28.90;41.10;98479.84;4958143;28;20055;-88
2022/05/23 10:59:41;;;;;;;3.30;1.40;;;;;;;29.27;42.34;98471.34;4975339;28;20055;-88
2022/05/23 11:02:09;;;;;;;3.63;1.58;;;;;;;29.77;42.67;98477.13;4975126;28;20135;-89
2022/05/23 11:05:17;;;;;;;3.60;1.70;;;;;;;30.22;40.93;98466.44;4975552;28;20058;-88
2022/05/23 11:08:04;;;;;;;2.97;1.60;;;;;;;30.76;40.48;98459.56;4941623;28;20055;-89
2022/05/23 11:10:46;;;;;;;2.33;1.58;;;;;;;31.10;37.36;98452.34;4958180;28;20062;-89
2022/05/23 11:13:24;;;;;;;1.80;1.30;;;;;;;31.37;37.89;98452.38;4975375;28;20051;-88
2022/05/23 11:16:01;;;;;;;3.60;1.30;;;;;;;31.54;36.62;98452.25;4974979;28;20301;-88
2022/05/23 11:19:05;;;;;;;2.53;1.30;;;;;;;31.59;37.30;98446.84;4957850;28;20515;-87
2022/05/23 11:21:36;;;;;;;4.07;1.30;;;;;;;31.68;37.12;98428.16;4957705;28;20058;-88
2022/05/23 11:24:18;;;;;;;2.33;1.20;;;;;;;31.75;38.04;98422.50;4958930;28;20054;-87
2022/05/23 11:26:54;;;;;;;3.53;1.33;;;;;;;31.92;37.99;98427.81;4974836;28;20105;-87
2022/05/23 11:35:10;;;;;;;2.58;1.50;;;;;;;32.16;36.51;98418.44;4974799;28;20055;-87
2022/05/23 11:37:43;;;;;;;2.20;1.40;;;;;;;32.25;35.52;98405.94;4974493;28;20052;-87
2022/05/23 11:40:33;;;;;;;4.43;1.42;;;;;;;32.43;36.48;98401.13;4973935;28;20057;-87
2022/05/23 11:43:15;;;;;;;4.50;1.58;;;;;;;32.65;36.50;98397.44;4972702;28;20456;-86
2022/05/23 11:46:02;;;;;;;1.90;1.33;;;;;;;32.87;36.93;98387.16;4974182;28;20051;-88
2022/05/23 11:48:43;;;;;;;3.92;1.10;;;;;;;33.12;36.53;98384.78;4957291;28;20053;-87
2022/05/23 11:51:17;;;;;;;4.13;1.75;;;;;;;33.43;36.71;98375.78;4974012;28;20397;-86
2022/05/23 11:53:55;;;;;;;4.53;1.35;;;;;;;33.71;35.73;98371.69;4974152;28;20113;-87
2022/05/23 11:56:43;;;;;;;2.63;1.65;;;;;;;33.95;36.30;98368.38;4972952;28;20055;-88
2022/05/23 11:59:25;;;;;;;7.18;1.70;;;;;;;34.17;35.49;98373.50;4956960;28;20540;-89
2022/05/23 12:02:07;;;;;;;3.27;1.60;;;;;;;34.34;35.24;98358.72;4956560;28;20066;-87
2022/05/23 12:04:55;;;;;;;2.70;1.27;;;;;;;34.58;35.13;98360.81;4973978;28;20737;-87
2022/05/23 12:07:31;;;;;;;4.97;1.45;;;;;;;34.74;34.17;98352.53;4973624;28;20106;-87
2022/05/23 12:10:24;;;;;;;2.58;1.10;;;;;;;34.92;33.80;98351.88;4956471;28;20050;-87
2022/05/23 12:12:53;;;;;;;3.15;1.10;;;;;;;35.20;34.40;98335.81;4956572;28;20046;-87
2022/05/23 12:15:41;;;;;;;4.93;1.15;;;;;;;35.40;32.68;98339.50;4956574;28;20062;-87
2022/05/23 12:18:23;;;;;;;2.60;1.45;;;;;;;35.66;32.83;98336.56;4956670;28;20050;-87
2022/05/23 12:20:59;;;;;;;3.85;1.10;;;;;;;35.90;31.63;98334.91;4956140;28;20497;-87
2022/05/23 12:23:42;;;;;;;2.33;1.15;;;;;;;36.08;31.87;98322.38;4973954;28;20051;-86
2022/05/23 12:26:09;;;;;;;4.05;1.73;;;;;;;36.33;32.61;98315.78;4974108;28;20042;-85
2022/05/23 12:28:57;;;;;;;3.45;1.55;;;;;;;36.50;32.14;98318.03;4956012;28;20054;-86
2022/05/23 12:31:29;;;;;;;3.45;1.63;;;;;;;36.77;30.87;98313.00;4973887;28;20043;-88
2022/05/23 12:34:02;;;;;;;2.63;1.10;;;;;;;36.94;29.96;98303.44;4973454;28;20062;-87
2022/05/23 12:36:36;;;;;;;2.63;1.30;;;;;;;37.11;29.99;98300.16;4973181;28;20113;-87
2022/05/23 12:39:18;;;;;;;1.98;1.15;;;;;;;37.24;29.97;98293.91;4956372;28;20055;-87
2022/05/23 12:42:08;;;;;;;4.43;1.30;;;;;;;37.35;31.12;98289.06;4972832;28;20094;-87
2022/05/23 12:44:53;;;;;;;2.60;1.30;;;;;;;37.47;29.72;98284.97;4962529;28;20047;-87